createdAt,value
2018-06-27T00:00:49.243Z,1018.99
2018-06-27T00:01:49.264Z,1018.97
2018-06-27T00:02:49.290Z,1018.91
2018-06-27T00:03:49.310Z,1018.91
2018-06-27T00:04:49.333Z,1018.92
2018-06-27T00:05:49.353Z,1018.92
2018-06-27T00:06:49.386Z,1018.95
2018-06-27T00:07:49.400Z,1018.93
2018-06-27T00:08:49.422Z,1018.94
2018-06-27T00:09:49.444Z,1018.99
2018-06-27T00:10:49.468Z,1018.94
2018-06-27T00:11:49.491Z,1018.98
2018-06-27T00:12:49.515Z,1019.01
2018-06-27T00:13:49.535Z,1018.99
2018-06-27T00:14:49.558Z,1019.02
2018-06-27T00:15:49.581Z,1019.03
2018-06-27T00:16:49.602Z,1019.06
2018-06-27T00:17:49.624Z,1019.03
2018-06-27T00:18:49.651Z,1019
2018-06-27T00:19:49.669Z,1018.99
2018-06-27T00:20:49.691Z,1018.93
2018-06-27T00:21:49.720Z,1018.93
2018-06-27T00:22:49.736Z,1018.92
2018-06-27T00:23:49.757Z,1018.91
2018-06-27T00:24:49.789Z,1018.86
2018-06-27T00:25:49.804Z,1018.89
2018-06-27T00:26:49.828Z,1018.89
2018-06-27T00:27:49.849Z,1018.9
2018-06-27T00:28:49.871Z,1018.89
2018-06-27T00:29:49.894Z,1018.91
2018-06-27T00:30:49.917Z,1018.88
2018-06-27T00:32:49.965Z,1018.89
2018-06-27T00:33:50.047Z,1018.87
2018-06-27T00:34:50.006Z,1018.91
2018-06-27T00:35:50.029Z,1018.89
2018-06-27T00:36:50.053Z,1018.95
2018-06-27T00:37:50.174Z,1018.93
2018-06-27T00:38:50.098Z,1018.92
2018-06-27T00:39:50.119Z,1018.94
2018-06-27T00:40:50.143Z,1018.93
2018-06-27T00:41:50.162Z,1018.93
2018-06-27T00:42:50.185Z,1018.92
2018-06-27T00:43:50.207Z,1018.92
2018-06-27T00:44:50.230Z,1018.94
2018-06-27T00:45:50.252Z,1018.9
2018-06-27T00:46:50.275Z,1018.85
2018-06-27T00:48:50.318Z,1018.9
2018-06-27T00:49:50.342Z,1018.92
2018-06-27T00:50:50.364Z,1018.91
2018-06-27T00:51:50.392Z,1018.89
2018-06-27T00:52:50.409Z,1018.88
2018-06-27T00:53:50.431Z,1018.95
2018-06-27T00:54:50.854Z,1018.86
2018-06-27T00:55:50.476Z,1018.89
2018-06-27T00:56:50.497Z,1018.85
2018-06-27T00:57:50.519Z,1018.91
2018-06-27T00:58:50.541Z,1018.88
2018-06-27T00:59:50.565Z,1018.94
2018-06-27T01:00:50.586Z,1018.93
2018-06-27T01:01:50.610Z,1018.97
2018-06-27T01:02:50.631Z,1018.95
2018-06-27T01:04:50.676Z,1018.98
2018-06-27T01:05:50.698Z,1018.93
2018-06-27T01:06:50.721Z,1018.88
2018-06-27T01:07:50.742Z,1018.9
2018-06-27T01:08:50.863Z,1018.92
2018-06-27T01:09:50.787Z,1018.92
2018-06-27T01:10:50.810Z,1018.92
2018-06-27T01:11:50.831Z,1018.93
2018-06-27T01:12:50.852Z,1018.97
2018-06-27T01:13:50.876Z,1019.02
2018-06-27T01:14:50.897Z,1019.01
2018-06-27T01:15:50.920Z,1019.02
2018-06-27T01:16:50.942Z,1019.02
2018-06-27T01:17:50.965Z,1019.07
2018-06-27T01:18:50.993Z,1019.03
2018-06-27T01:20:51.032Z,1019.01
2018-06-27T01:21:51.054Z,1019.01
2018-06-27T01:22:51.076Z,1019.02
2018-06-27T01:23:51.100Z,1018.97
2018-06-27T01:24:51.120Z,1018.99
2018-06-27T01:25:51.142Z,1019
2018-06-27T01:26:51.163Z,1018.98
2018-06-27T01:27:51.187Z,1019.01
2018-06-27T01:28:51.208Z,1019.06
2018-06-27T01:29:51.230Z,1019.02
2018-06-27T01:30:51.254Z,1018.97
2018-06-27T01:31:51.275Z,1019.02
2018-06-27T01:32:51.298Z,1018.99
2018-06-27T01:33:51.320Z,1019.03
2018-06-27T01:35:51.364Z,1019.11
2018-06-27T01:36:51.386Z,1019.1
2018-06-27T01:37:51.410Z,1019.06
2018-06-27T01:38:51.432Z,1019.06
2018-06-27T01:39:51.455Z,1019.09
2018-06-27T01:40:51.476Z,1019.09
2018-06-27T01:41:51.499Z,1019.09
2018-06-27T01:42:51.521Z,1019.05
2018-06-27T01:43:51.543Z,1019.07
2018-06-27T01:44:51.565Z,1019.07
2018-06-27T01:45:51.588Z,1019.02
2018-06-27T01:46:51.611Z,1019.05
2018-06-27T01:47:51.632Z,1019.02
2018-06-27T01:48:51.661Z,1019.06
2018-06-27T01:49:51.677Z,1019.06
2018-06-27T01:50:51.697Z,1019.08
2018-06-27T01:51:51.719Z,1019.06
2018-06-27T01:52:51.742Z,1019.07
2018-06-27T01:53:51.763Z,1019.04
2018-06-27T01:54:51.786Z,1019.03
2018-06-27T01:55:51.808Z,1019.03
2018-06-27T01:56:51.830Z,1019.04
2018-06-27T01:57:51.852Z,1019.02
2018-06-27T01:58:51.877Z,1019.08
2018-06-27T01:59:51.896Z,1019.07
2018-06-27T02:00:51.923Z,1019.11
2018-06-27T02:01:51.942Z,1019.08
2018-06-27T02:02:51.963Z,1019.11
2018-06-27T02:03:51.985Z,1019.11
2018-06-27T02:04:52.009Z,1019.1
2018-06-27T02:05:52.030Z,1019.08
2018-06-27T02:07:52.074Z,1019.09
2018-06-27T02:08:52.097Z,1019.1
2018-06-27T02:09:52.118Z,1019.06
2018-06-27T02:10:52.141Z,1019.06
2018-06-27T02:11:52.162Z,1019.07
2018-06-27T02:12:52.184Z,1019.05
2018-06-27T02:13:52.206Z,1019.04
2018-06-27T02:14:52.229Z,1019.03
2018-06-27T02:15:52.250Z,1019.06
2018-06-27T02:16:52.273Z,1019.08
2018-06-27T02:17:52.296Z,1019.03
2018-06-27T02:18:52.317Z,1019.06
2018-06-27T02:19:52.344Z,1019.09
2018-06-27T02:20:52.364Z,1019.13
2018-06-27T02:21:52.383Z,1019.13
2018-06-27T02:23:52.428Z,1019.16
2018-06-27T02:24:52.449Z,1019.17
2018-06-27T02:25:52.470Z,1019.2
2018-06-27T02:26:52.494Z,1019.22
2018-06-27T02:27:52.515Z,1019.22
2018-06-27T02:28:52.537Z,1019.26
2018-06-27T02:29:52.559Z,1019.22
2018-06-27T02:30:52.581Z,1019.24
2018-06-27T02:31:52.603Z,1019.24
2018-06-27T02:32:52.627Z,1019.26
2018-06-27T02:33:52.648Z,1019.25
2018-06-27T02:34:52.671Z,1019.3
2018-06-27T02:35:52.697Z,1019.31
2018-06-27T02:36:52.714Z,1019.34
2018-06-27T02:37:52.736Z,1019.32
2018-06-27T02:39:52.780Z,1019.3
2018-06-27T02:40:52.802Z,1019.29
2018-06-27T02:41:52.824Z,1019.3
2018-06-27T02:42:52.845Z,1019.33
2018-06-27T02:43:52.866Z,1019.37
2018-06-27T02:44:52.889Z,1019.33
2018-06-27T02:45:52.911Z,1019.38
2018-06-27T02:46:52.934Z,1019.37
2018-06-27T02:47:52.956Z,1019.36
2018-06-27T02:48:52.979Z,1019.34
2018-06-27T02:49:53.057Z,1019.35
2018-06-27T02:50:53.025Z,1019.34
2018-06-27T02:51:53.093Z,1019.34
2018-06-27T02:52:53.066Z,1019.34
2018-06-27T02:53:53.088Z,1019.36
2018-06-27T02:55:53.130Z,1019.31
2018-06-27T02:56:53.152Z,1019.33
2018-06-27T02:57:53.174Z,1019.31
2018-06-27T02:58:53.199Z,1019.32
2018-06-27T02:59:53.220Z,1019.31
2018-06-27T03:00:53.239Z,1019.36
2018-06-27T03:01:53.262Z,1019.35
2018-06-27T03:02:53.286Z,1019.35
2018-06-27T03:03:53.308Z,1019.36
2018-06-27T03:04:53.336Z,1019.4
2018-06-27T03:05:53.350Z,1019.4
2018-06-27T03:06:53.373Z,1019.35
2018-06-27T03:07:53.396Z,1019.4
2018-06-27T03:08:53.419Z,1019.37
2018-06-27T03:10:53.461Z,1019.39
2018-06-27T03:11:53.485Z,1019.4
2018-06-27T03:12:53.586Z,1019.4
2018-06-27T03:13:53.528Z,1019.41
2018-06-27T03:14:53.551Z,1019.44
2018-06-27T03:15:53.572Z,1019.42
2018-06-27T03:16:53.594Z,1019.47
2018-06-27T03:17:53.617Z,1019.43
2018-06-27T03:18:53.637Z,1019.45
2018-06-27T03:19:53.660Z,1019.5
2018-06-27T03:20:53.682Z,1019.47
2018-06-27T03:21:53.704Z,1019.5
2018-06-27T03:22:53.726Z,1019.51
2018-06-27T03:23:53.748Z,1019.52
2018-06-27T03:24:53.772Z,1019.49
2018-06-27T03:25:53.793Z,1019.52
2018-06-27T03:26:53.813Z,1019.51
2018-06-27T03:27:53.836Z,1019.53
2018-06-27T03:28:53.879Z,1019.55
2018-06-27T03:29:53.879Z,1019.56
2018-06-27T03:30:53.902Z,1019.57
2018-06-27T03:31:53.925Z,1019.57
2018-06-27T03:32:53.946Z,1019.59
2018-06-27T03:33:53.969Z,1019.56
2018-06-27T03:34:53.990Z,1019.58
2018-06-27T03:35:54.014Z,1019.57
2018-06-27T03:36:54.035Z,1019.56
2018-06-27T03:37:54.057Z,1019.6
2018-06-27T03:38:54.082Z,1019.61
2018-06-27T03:39:54.101Z,1019.58
2018-06-27T03:40:54.123Z,1019.6
2018-06-27T03:42:54.169Z,1019.67
2018-06-27T03:43:54.190Z,1019.67
2018-06-27T03:44:54.213Z,1019.71
2018-06-27T03:45:54.233Z,1019.7
2018-06-27T03:46:54.257Z,1019.71
2018-06-27T03:47:54.277Z,1019.69
2018-06-27T03:48:54.300Z,1019.72
2018-06-27T03:49:54.322Z,1019.71
2018-06-27T03:50:54.346Z,1019.74
2018-06-27T03:51:54.367Z,1019.74
2018-06-27T03:52:54.388Z,1019.73
2018-06-27T03:53:54.412Z,1019.75
2018-06-27T03:54:54.435Z,1019.78
2018-06-27T03:55:54.456Z,1019.78
2018-06-27T03:56:54.479Z,1019.75
2018-06-27T03:58:54.533Z,1019.79
2018-06-27T03:59:54.547Z,1019.81
2018-06-27T04:00:54.569Z,1019.84
2018-06-27T04:01:54.590Z,1019.79
2018-06-27T04:02:54.613Z,1019.82
2018-06-27T04:03:54.634Z,1019.81
2018-06-27T04:04:54.658Z,1019.82
2018-06-27T04:05:54.681Z,1019.86
2018-06-27T04:06:54.702Z,1019.85
2018-06-27T04:07:54.725Z,1019.84
2018-06-27T04:08:54.752Z,1019.91
2018-06-27T04:09:54.771Z,1019.89
2018-06-27T04:10:54.797Z,1019.95
2018-06-27T04:11:54.816Z,1019.96
2018-06-27T04:12:54.915Z,1019.91
2018-06-27T04:14:54.913Z,1020.07
2018-06-27T04:15:54.907Z,1020.16
2018-06-27T04:16:54.931Z,1020.22
2018-06-27T04:17:55.053Z,1020.16
2018-06-27T04:18:54.976Z,1020.13
2018-06-27T04:19:54.999Z,1020.1
2018-06-27T04:20:55.026Z,1020.16
2018-06-27T04:21:55.046Z,1020.19
2018-06-27T04:22:55.070Z,1020.22
2018-06-27T04:23:55.093Z,1020.27
2018-06-27T04:24:55.117Z,1020.37
2018-06-27T04:25:55.163Z,1020.41
2018-06-27T04:26:55.165Z,1020.41
2018-06-27T04:27:55.190Z,1020.5
2018-06-27T04:28:55.213Z,1020.63
2018-06-27T04:30:55.264Z,1020.57
2018-06-27T04:31:55.294Z,1020.6
2018-06-27T04:32:55.314Z,1020.59
2018-06-27T04:33:55.339Z,1020.64
2018-06-27T04:34:55.367Z,1020.67
2018-06-27T04:35:55.421Z,1020.69
2018-06-27T04:36:55.419Z,1020.7
2018-06-27T04:37:55.445Z,1020.67
2018-06-27T04:38:55.475Z,1020.65
2018-06-27T04:39:55.500Z,1020.64
2018-06-27T04:40:55.528Z,1020.64
2018-06-27T04:41:55.556Z,1020.55
2018-06-27T04:42:55.588Z,1020.6
2018-06-27T04:43:55.612Z,1020.57
2018-06-27T04:45:55.670Z,1020.57
2018-06-27T04:46:55.699Z,1020.53
2018-06-27T04:47:55.732Z,1020.56
2018-06-27T04:48:55.757Z,1020.6
2018-06-27T04:49:55.787Z,1020.6
2018-06-27T04:50:55.825Z,1020.55
2018-06-27T04:51:55.847Z,1020.57
2018-06-27T04:52:55.876Z,1020.57
2018-06-27T04:53:55.906Z,1020.58
2018-06-27T04:54:55.961Z,1020.63
2018-06-27T04:55:55.968Z,1020.61
2018-06-27T04:56:56.011Z,1020.67
2018-06-27T04:57:56.029Z,1020.61
2018-06-27T04:58:56.060Z,1020.66
2018-06-27T04:59:56.092Z,1020.64
2018-06-27T05:00:56.124Z,1020.69
2018-06-27T05:01:56.156Z,1020.72
2018-06-27T05:02:56.187Z,1020.78
2018-06-27T05:03:56.220Z,1020.74
2018-06-27T05:04:56.250Z,1020.8
2018-06-27T05:05:56.284Z,1020.82
2018-06-27T05:06:56.316Z,1020.86
2018-06-27T05:07:56.349Z,1020.98
2018-06-27T05:08:56.380Z,1020.96
2018-06-27T05:09:56.413Z,1021
2018-06-27T05:10:56.446Z,1021.01
2018-06-27T05:11:56.481Z,1021.06
2018-06-27T05:12:56.511Z,1021.13
2018-06-27T05:13:56.545Z,1021.17
2018-06-27T05:14:56.579Z,1021.17
2018-06-27T05:15:56.618Z,1021.19
2018-06-27T05:17:56.684Z,1021.24
2018-06-27T05:18:56.712Z,1021.23
2018-06-27T05:19:56.746Z,1021.27
2018-06-27T05:20:56.782Z,1021.29
2018-06-27T05:21:56.814Z,1021.33
2018-06-27T05:22:56.847Z,1021.33
2018-06-27T05:23:56.881Z,1021.35
2018-06-27T05:24:56.916Z,1021.32
2018-06-27T05:25:56.951Z,1021.34
2018-06-27T05:26:56.985Z,1021.36
2018-06-27T05:27:57.018Z,1021.37
2018-06-27T05:28:57.053Z,1021.36
2018-06-27T05:29:57.089Z,1021.34
2018-06-27T05:30:57.122Z,1021.36
2018-06-27T05:31:57.157Z,1021.38
2018-06-27T05:33:57.254Z,1021.32
2018-06-27T05:34:57.262Z,1021.33
2018-06-27T05:35:57.295Z,1021.33
2018-06-27T05:36:57.331Z,1021.34
2018-06-27T05:37:57.364Z,1021.3
2018-06-27T05:38:57.400Z,1021.31
2018-06-27T05:39:57.435Z,1021.33
2018-06-27T05:40:57.470Z,1021.38
2018-06-27T05:41:57.509Z,1021.37
2018-06-27T05:42:57.540Z,1021.33
2018-06-27T05:43:57.575Z,1021.38
2018-06-27T05:44:57.611Z,1021.35
2018-06-27T05:45:57.646Z,1021.4
2018-06-27T05:46:57.684Z,1021.38
2018-06-27T05:47:57.717Z,1021.38
2018-06-27T05:49:57.787Z,1021.4
2018-06-27T05:50:57.822Z,1021.47
2018-06-27T05:51:57.858Z,1021.51
2018-06-27T05:52:57.893Z,1021.5
2018-06-27T05:53:57.930Z,1021.53
2018-06-27T05:54:57.965Z,1021.54
2018-06-27T05:55:58.000Z,1021.6
2018-06-27T05:56:58.035Z,1021.59
2018-06-27T05:57:58.071Z,1021.63
2018-06-27T05:58:58.110Z,1021.67
2018-06-27T05:59:58.142Z,1021.59
2018-06-27T06:00:58.177Z,1021.63
2018-06-27T06:01:58.213Z,1021.62
2018-06-27T06:02:58.249Z,1021.61
2018-06-27T06:03:58.286Z,1021.64
2018-06-27T06:05:58.362Z,1021.66
2018-06-27T06:06:58.391Z,1021.67
2018-06-27T06:07:58.427Z,1021.59
2018-06-27T06:08:58.464Z,1021.54
2018-06-27T06:09:58.563Z,1021.52
2018-06-27T06:10:58.535Z,1021.49
2018-06-27T06:11:58.571Z,1021.47
2018-06-27T06:12:58.607Z,1021.46
2018-06-27T06:13:58.647Z,1021.43
2018-06-27T06:14:58.679Z,1021.44
2018-06-27T06:15:58.716Z,1021.4
2018-06-27T06:16:58.753Z,1021.41
2018-06-27T06:17:58.796Z,1021.41
2018-06-27T06:18:58.825Z,1021.37
2018-06-27T06:20:58.898Z,1021.36
2018-06-27T06:21:58.938Z,1021.34
2018-06-27T06:22:58.972Z,1021.38
2018-06-27T06:23:59.009Z,1021.32
2018-06-27T06:24:59.045Z,1021.3
2018-06-27T06:25:59.080Z,1021.33
2018-06-27T06:26:59.117Z,1021.38
2018-06-27T06:27:59.155Z,1021.44
2018-06-27T06:28:59.191Z,1021.49
2018-06-27T06:29:59.231Z,1021.48
2018-06-27T06:30:59.263Z,1021.51
2018-06-27T06:31:59.301Z,1021.48
2018-06-27T06:32:59.336Z,1021.49
2018-06-27T06:33:59.375Z,1021.51
2018-06-27T06:34:59.411Z,1021.54
2018-06-27T06:35:59.447Z,1021.58
2018-06-27T06:36:59.484Z,1021.6
2018-06-27T06:37:59.522Z,1021.58
2018-06-27T06:38:59.559Z,1021.61
2018-06-27T06:39:59.595Z,1021.69
2018-06-27T06:40:59.633Z,1021.72
2018-06-27T06:41:59.670Z,1021.69
2018-06-27T06:42:59.714Z,1021.72
2018-06-27T06:43:59.745Z,1021.74
2018-06-27T06:44:59.788Z,1021.76
2018-06-27T06:45:59.825Z,1021.75
2018-06-27T06:46:59.854Z,1021.78
2018-06-27T06:47:59.895Z,1021.79
2018-06-27T06:48:59.931Z,1021.79
2018-06-27T06:49:59.965Z,1021.82
2018-06-27T06:51:00.008Z,1021.84
2018-06-27T06:53:00.078Z,1021.83
2018-06-27T06:54:00.116Z,1021.86
2018-06-27T06:55:00.153Z,1021.85
2018-06-27T06:56:00.188Z,1021.83
2018-06-27T06:57:00.225Z,1021.82
2018-06-27T06:58:00.263Z,1021.87
2018-06-27T06:59:00.305Z,1021.89
2018-06-27T07:00:00.337Z,1021.97
2018-06-27T07:01:00.375Z,1022.12
2018-06-27T07:02:00.409Z,1022.21
2018-06-27T07:03:00.448Z,1022.22
2018-06-27T07:04:00.488Z,1022.17
2018-06-27T07:05:00.571Z,1022.16
2018-06-27T07:06:00.659Z,1022.11
2018-06-27T07:07:00.598Z,1021.52
2018-06-27T07:09:00.669Z,1021.62
2018-06-27T07:10:00.706Z,1022.19
2018-06-27T07:11:00.774Z,1021.35
2018-06-27T07:12:00.779Z,1022.14
2018-06-27T07:13:00.815Z,1022.2
2018-06-27T07:14:00.852Z,1022.19
2018-06-27T07:15:00.889Z,1022.21
2018-06-27T07:16:00.923Z,1022.31
2018-06-27T07:17:00.960Z,1022.18
2018-06-27T07:18:00.998Z,1022.3
2018-06-27T07:19:01.033Z,1021.51
2018-06-27T07:20:01.068Z,1022.4
2018-06-27T07:21:01.104Z,1022.43
2018-06-27T07:22:01.241Z,1022.43
2018-06-27T07:23:01.177Z,1022.43
2018-06-27T07:25:01.248Z,1022.45
2018-06-27T07:26:01.286Z,1022.07
2018-06-27T07:27:01.321Z,1021.34
2018-06-27T07:28:01.356Z,1022.24
2018-06-27T07:29:01.392Z,1022.71
2018-06-27T07:30:01.531Z,1021.28
2018-06-27T07:31:01.467Z,1021.25
2018-06-27T07:32:01.498Z,1021.3
2018-06-27T07:33:01.533Z,1021.34
2018-06-27T07:34:01.568Z,1021.43
2018-06-27T07:35:01.611Z,1021.87
2018-06-27T07:36:01.693Z,1021.4
2018-06-27T07:37:01.721Z,1021.28
2018-06-27T07:38:01.705Z,1022.8
2018-06-27T07:39:01.754Z,1022.03
2018-06-27T07:41:01.806Z,1021.37
2018-06-27T07:42:01.848Z,1021.31
2018-06-27T07:43:01.871Z,1021.36
2018-06-27T07:44:01.906Z,1021.34
2018-06-27T07:45:01.940Z,1021.44
2018-06-27T07:46:01.972Z,1021.41
2018-06-27T07:47:02.005Z,1022.89
2018-06-27T07:48:02.037Z,1021.43
2018-06-27T07:49:02.073Z,1021.87
2018-06-27T07:50:02.105Z,1023.22
2018-06-27T07:51:02.133Z,1021.39
2018-06-27T07:52:02.165Z,1021.42
2018-06-27T07:53:02.204Z,1023.14
2018-06-27T07:54:02.230Z,1021.55
2018-06-27T07:56:02.295Z,1023
2018-06-27T07:57:02.328Z,1022.91
2018-06-27T07:58:02.358Z,1021.29
2018-06-27T07:59:02.390Z,1022.89
2018-06-27T08:00:02.424Z,1021.4
2018-06-27T08:01:02.455Z,1022.1
2018-06-27T08:02:02.487Z,1021.24
2018-06-27T08:03:02.522Z,1021.29
2018-06-27T08:04:02.551Z,1022.59
2018-06-27T08:05:02.584Z,1022.58
2018-06-27T08:06:02.616Z,1022.61
2018-06-27T08:07:02.652Z,1022.55
2018-06-27T08:08:02.680Z,1022.5
2018-06-27T08:09:02.713Z,1021.43
2018-06-27T08:10:02.744Z,1021.35
2018-06-27T08:11:02.778Z,1021.25
2018-06-27T08:12:02.810Z,1021.29
2018-06-27T08:13:02.842Z,1022.39
2018-06-27T08:14:02.875Z,1021.38
2018-06-27T08:15:02.907Z,1021.39
2018-06-27T08:16:02.941Z,1021.3
2018-06-27T08:17:02.972Z,1021.33
2018-06-27T08:18:03.164Z,1021.31
2018-06-27T08:19:03.036Z,1021.33
2018-06-27T08:20:03.066Z,1021.34
2018-06-27T08:21:03.100Z,1022.2
2018-06-27T08:22:03.131Z,1022.12
2018-06-27T08:23:03.162Z,1021.71
2018-06-27T08:24:03.200Z,1021.82
2018-06-27T08:25:03.226Z,1021.3
2018-06-27T08:26:03.346Z,1021.75
2018-06-27T08:28:03.321Z,1022.09
2018-06-27T08:29:03.353Z,1022.07
2018-06-27T08:30:03.387Z,1021.92
2018-06-27T08:31:03.416Z,1021.7
2018-06-27T08:32:03.449Z,1021.98
2018-06-27T08:33:03.480Z,1021.93
2018-06-27T08:34:03.513Z,1021.34
2018-06-27T08:35:03.545Z,1021.91
2018-06-27T08:36:03.577Z,1021.29
2018-06-27T08:37:03.610Z,1021.32
2018-06-27T08:38:03.642Z,1021.9
2018-06-27T08:39:03.675Z,1021.82
2018-06-27T08:40:03.707Z,1021.38
2018-06-27T08:41:03.739Z,1021.34
2018-06-27T08:42:03.771Z,1021.27
2018-06-27T08:44:03.838Z,1021.25
2018-06-27T08:45:03.867Z,1021.27
2018-06-27T08:46:03.903Z,1021.35
2018-06-27T08:47:03.931Z,1021.26
2018-06-27T08:48:03.961Z,1021.85
2018-06-27T08:49:03.993Z,1021.85
2018-06-27T08:50:04.175Z,1021.29
2018-06-27T08:51:04.121Z,1021.72
2018-06-27T08:52:04.086Z,1021.41
2018-06-27T08:53:04.118Z,1021.77
2018-06-27T08:54:04.149Z,1021.8
2018-06-27T08:55:04.180Z,1021.55
2018-06-27T08:56:04.211Z,1021.73
2018-06-27T08:57:04.243Z,1021.76
2018-06-27T08:58:04.274Z,1021.42
2018-06-27T09:00:04.337Z,1021.5
2018-06-27T09:01:04.369Z,1021.39
2018-06-27T09:02:04.401Z,1021.45
2018-06-27T09:03:04.438Z,1021.38
2018-06-27T09:04:04.463Z,1021.39
2018-06-27T09:05:04.496Z,1021.42
2018-06-27T09:06:04.529Z,1021.42
2018-06-27T09:07:04.556Z,1021.49
2018-06-27T09:08:04.588Z,1021.41
2018-06-27T09:09:04.624Z,1021.46
2018-06-27T09:10:04.649Z,1021.48
2018-06-27T09:11:04.680Z,1021.46
2018-06-27T09:12:04.710Z,1021.48
2018-06-27T09:13:04.741Z,1021.51
2018-06-27T09:14:04.770Z,1021.49
2018-06-27T09:16:04.832Z,1021.52
2018-06-27T09:17:04.862Z,1021.46
2018-06-27T09:18:04.890Z,1021.5
2018-06-27T09:19:04.922Z,1021.58
2018-06-27T09:20:04.952Z,1021.49
2018-06-27T09:21:04.982Z,1021.52
2018-06-27T09:22:05.016Z,1021.56
2018-06-27T09:23:05.042Z,1021.55
2018-06-27T09:24:05.072Z,1021.64
2018-06-27T09:25:05.101Z,1021.54
2018-06-27T09:26:05.132Z,1021.56
2018-06-27T09:27:05.162Z,1021.52
2018-06-27T09:28:05.192Z,1021.51
2018-06-27T09:29:05.221Z,1021.52
2018-06-27T09:31:05.314Z,1021.46
2018-06-27T09:32:05.310Z,1021.57
2018-06-27T09:33:05.345Z,1021.53
2018-06-27T09:34:05.392Z,1021.5
2018-06-27T09:35:05.399Z,1021.44
2018-06-27T09:36:05.426Z,1021.45
2018-06-27T09:37:05.458Z,1021.51
2018-06-27T09:38:05.488Z,1021.48
2018-06-27T09:39:05.517Z,1021.48
2018-06-27T09:40:05.548Z,1021.46
2018-06-27T09:41:05.585Z,1021.4
2018-06-27T09:42:05.663Z,1021.45
2018-06-27T09:43:05.639Z,1021.37
2018-06-27T09:44:05.668Z,1021.39
2018-06-27T09:45:05.700Z,1021.4
2018-06-27T09:46:05.732Z,1021.38
2018-06-27T09:47:05.760Z,1021.49
2018-06-27T09:48:05.818Z,1021.39
2018-06-27T09:49:05.823Z,1021.45
2018-06-27T09:50:05.851Z,1021.46
2018-06-27T09:51:05.881Z,1021.44
2018-06-27T09:52:05.912Z,1021.4
2018-06-27T09:53:05.944Z,1021.35
2018-06-27T09:54:05.972Z,1021.4
2018-06-27T09:55:06.003Z,1021.37
2018-06-27T09:56:06.036Z,1021.32
2018-06-27T09:57:06.131Z,1021.35
2018-06-27T09:58:06.094Z,1021.34
2018-06-27T09:59:06.125Z,1021.32
2018-06-27T10:00:06.156Z,1021.31
2018-06-27T10:01:06.185Z,1021.3
2018-06-27T10:03:06.247Z,1021.32
2018-06-27T10:04:06.308Z,1021.36
2018-06-27T10:05:06.307Z,1021.33
2018-06-27T10:06:06.338Z,1021.38
2018-06-27T10:07:06.369Z,1021.32
2018-06-27T10:08:06.399Z,1021.28
2018-06-27T10:09:06.428Z,1021.28
2018-06-27T10:10:06.460Z,1021.31
2018-06-27T10:11:06.490Z,1021.25
2018-06-27T10:12:06.519Z,1021.25
2018-06-27T10:13:06.550Z,1021.22
2018-06-27T10:14:06.581Z,1021.23
2018-06-27T10:15:06.612Z,1021.2
2018-06-27T10:16:06.640Z,1021.19
2018-06-27T10:17:06.676Z,1021.21
2018-06-27T10:19:06.733Z,1021.23
2018-06-27T10:20:06.761Z,1021.15
2018-06-27T10:21:06.794Z,1021.12
2018-06-27T10:22:06.824Z,1021.1
2018-06-27T10:23:06.854Z,1021.15
2018-06-27T10:24:06.884Z,1021.16
2018-06-27T10:25:06.915Z,1021.14
2018-06-27T10:26:06.946Z,1021.2
2018-06-27T10:27:06.975Z,1021.13
2018-06-27T10:28:07.006Z,1021.13
2018-06-27T10:29:07.037Z,1021.13
2018-06-27T10:30:07.068Z,1021.09
2018-06-27T10:31:07.096Z,1021.05
2018-06-27T10:32:07.128Z,1021.04
2018-06-27T10:33:07.159Z,1021
2018-06-27T10:35:07.219Z,1021.04
2018-06-27T10:36:07.250Z,1021.08
2018-06-27T10:37:07.279Z,1021.12
2018-06-27T10:38:07.309Z,1021.07
2018-06-27T10:39:07.395Z,1020.98
2018-06-27T10:40:07.370Z,1021.07
2018-06-27T10:41:07.400Z,1021.04
2018-06-27T10:42:07.430Z,1021.04
2018-06-27T10:43:07.459Z,1021.09
2018-06-27T10:44:07.490Z,1021.05
2018-06-27T10:45:07.520Z,1021.08
2018-06-27T10:46:07.547Z,1021.02
2018-06-27T10:47:07.582Z,1021.04
2018-06-27T10:48:07.610Z,1021.03
2018-06-27T10:49:07.638Z,1021.05
2018-06-27T10:51:07.697Z,1021.05
2018-06-27T10:52:07.732Z,1020.97
2018-06-27T10:53:07.757Z,1021
2018-06-27T10:54:07.787Z,1021.02
2018-06-27T10:55:07.817Z,1021.03
2018-06-27T10:56:07.846Z,1021.04
2018-06-27T10:57:07.876Z,1021.03
2018-06-27T10:58:07.906Z,1021.02
2018-06-27T10:59:07.936Z,1020.96
2018-06-27T11:00:07.964Z,1021.03
2018-06-27T11:01:08.026Z,1020.99
2018-06-27T11:02:08.024Z,1020.92
2018-06-27T11:03:08.062Z,1020.89
2018-06-27T11:04:08.086Z,1020.99
2018-06-27T11:06:08.150Z,1020.91
2018-06-27T11:07:08.173Z,1020.9
2018-06-27T11:08:08.202Z,1020.92
2018-06-27T11:09:08.230Z,1020.89
2018-06-27T11:10:08.260Z,1020.89
2018-06-27T11:11:08.288Z,1020.86
2018-06-27T11:12:08.320Z,1020.87
2018-06-27T11:13:08.347Z,1020.85
2018-06-27T11:14:08.450Z,1020.86
2018-06-27T11:15:08.405Z,1020.87
2018-06-27T11:16:08.434Z,1020.9
2018-06-27T11:17:08.463Z,1020.89
2018-06-27T11:18:08.546Z,1020.82
2018-06-27T11:19:08.522Z,1020.86
2018-06-27T11:20:08.553Z,1020.92
2018-06-27T11:21:08.578Z,1020.93
2018-06-27T11:22:08.606Z,1020.87
2018-06-27T11:23:08.639Z,1020.89
2018-06-27T11:24:08.662Z,1020.91
2018-06-27T11:25:08.692Z,1021.03
2018-06-27T11:26:08.720Z,1020.96
2018-06-27T11:27:08.749Z,1020.9
2018-06-27T11:28:08.778Z,1020.89
2018-06-27T11:29:08.805Z,1020.86
2018-06-27T11:30:08.834Z,1020.84
2018-06-27T11:31:08.863Z,1020.81
2018-06-27T11:32:08.892Z,1020.8
2018-06-27T11:33:08.919Z,1020.81
2018-06-27T11:34:08.948Z,1020.78
2018-06-27T11:35:08.977Z,1020.83
2018-06-27T11:36:09.004Z,1020.93
2018-06-27T11:38:09.062Z,1020.86
2018-06-27T11:39:09.090Z,1020.84
2018-06-27T11:40:09.133Z,1020.82
2018-06-27T11:41:09.148Z,1020.83
2018-06-27T11:42:09.176Z,1020.89
2018-06-27T11:43:09.261Z,1020.75
2018-06-27T11:44:09.232Z,1020.75
2018-06-27T11:45:09.261Z,1020.79
2018-06-27T11:46:09.289Z,1020.73
2018-06-27T11:47:09.317Z,1020.71
2018-06-27T11:48:09.345Z,1020.74
2018-06-27T11:49:09.374Z,1020.73
2018-06-27T11:50:09.403Z,1020.67
2018-06-27T11:51:09.438Z,1020.71
2018-06-27T11:52:09.459Z,1020.61
2018-06-27T11:54:09.517Z,1020.66
2018-06-27T11:55:09.544Z,1020.64
2018-06-27T11:56:09.573Z,1020.62
2018-06-27T11:57:09.606Z,1020.67
2018-06-27T11:58:09.629Z,1020.61
2018-06-27T11:59:09.659Z,1020.66
2018-06-27T12:00:09.687Z,1020.62
2018-06-27T12:01:09.717Z,1020.64
2018-06-27T12:02:09.744Z,1020.68
2018-06-27T12:03:09.773Z,1020.65
2018-06-27T12:04:09.802Z,1020.64
2018-06-27T12:05:09.833Z,1020.67
2018-06-27T12:06:09.858Z,1020.66
2018-06-27T12:07:09.889Z,1020.7
2018-06-27T12:08:09.917Z,1020.66
2018-06-27T12:10:09.973Z,1020.59
2018-06-27T12:11:10.002Z,1020.59
2018-06-27T12:12:10.038Z,1020.53
2018-06-27T12:13:10.059Z,1020.63
2018-06-27T12:14:10.089Z,1020.54
2018-06-27T12:15:10.116Z,1020.59
2018-06-27T12:16:10.145Z,1020.61
2018-06-27T12:17:10.173Z,1020.62
2018-06-27T12:18:10.200Z,1020.61
2018-06-27T12:19:10.234Z,1020.65
2018-06-27T12:20:10.268Z,1020.6
2018-06-27T12:21:10.285Z,1020.57
2018-06-27T12:22:10.314Z,1020.62
2018-06-27T12:23:10.343Z,1020.59
2018-06-27T12:24:10.371Z,1020.56
2018-06-27T12:26:10.429Z,1020.48
2018-06-27T12:27:10.457Z,1020.48
2018-06-27T12:28:10.487Z,1020.51
2018-06-27T12:29:10.518Z,1020.52
2018-06-27T12:30:10.542Z,1020.47
2018-06-27T12:31:10.570Z,1020.51
2018-06-27T12:32:10.598Z,1020.54
2018-06-27T12:33:10.628Z,1020.52
2018-06-27T12:34:10.656Z,1020.54
2018-06-27T12:35:10.683Z,1020.51
2018-06-27T12:36:10.713Z,1020.47
2018-06-27T12:37:10.745Z,1020.47
2018-06-27T12:38:10.769Z,1020.44
2018-06-27T12:39:10.797Z,1020.49
2018-06-27T12:41:10.855Z,1020.45
2018-06-27T12:42:10.882Z,1020.45
2018-06-27T12:43:10.913Z,1020.45
2018-06-27T12:44:10.939Z,1020.55
2018-06-27T12:45:10.968Z,1020.48
2018-06-27T12:46:10.995Z,1020.47
2018-06-27T12:47:11.023Z,1020.5
2018-06-27T12:48:11.052Z,1020.47
2018-06-27T12:49:11.078Z,1020.44